createdAt,value
2017-04-18T00:00:47.370Z,996.79
2017-04-18T00:01:57.618Z,996.78
2017-04-18T00:03:07.970Z,996.79
2017-04-18T00:04:18.218Z,996.78
2017-04-18T00:05:28.474Z,996.83
2017-04-18T00:06:38.728Z,996.83
2017-04-18T00:07:48.660Z,996.83
2017-04-18T00:08:59.169Z,996.82
2017-04-18T00:10:09.426Z,996.82
2017-04-18T00:11:19.706Z,996.86
2017-04-18T00:12:29.956Z,996.86
2017-04-18T00:13:39.900Z,996.87
2017-04-18T00:14:50.261Z,996.89
2017-04-18T00:16:00.515Z,996.9
2017-04-18T00:17:10.449Z,996.91
2017-04-18T00:18:20.699Z,996.92
2017-04-18T00:19:31.102Z,996.95
2017-04-18T00:20:41.670Z,996.95
2017-04-18T00:21:51.611Z,996.95
2017-04-18T00:23:01.863Z,996.97
2017-04-18T00:24:12.121Z,997.01
2017-04-18T00:25:22.399Z,996.96
2017-04-18T00:26:32.748Z,996.98
2017-04-18T00:27:42.999Z,996.98
2017-04-18T00:28:52.968Z,997.01
2017-04-18T00:30:03.220Z,997.04
2017-04-18T00:31:13.474Z,997.03
2017-04-18T00:32:23.538Z,997.03
2017-04-18T00:33:33.477Z,997.03
2017-04-18T00:34:43.416Z,997.04
2017-04-18T00:35:53.666Z,997.05
2017-04-18T00:37:03.914Z,997.14
2017-04-18T00:38:14.004Z,997.1
2017-04-18T00:39:24.262Z,997.1
2017-04-18T00:40:34.519Z,997.14
2017-04-18T00:41:44.768Z,997.11
2017-04-18T00:42:54.705Z,997.18
2017-04-18T00:44:05.214Z,997.17
2017-04-18T00:45:15.482Z,997.24
2017-04-18T00:46:25.739Z,997.24
2017-04-18T00:47:35.985Z,997.27
2017-04-18T00:48:46.246Z,997.27
2017-04-18T00:49:56.336Z,997.29
2017-04-18T00:51:06.593Z,997.26
2017-04-18T00:52:16.864Z,997.24
2017-04-18T00:53:27.114Z,997.26
2017-04-18T00:54:37.382Z,997.3
2017-04-18T00:55:47.736Z,997.3
2017-04-18T00:56:57.986Z,997.31
2017-04-18T00:58:08.247Z,997.36
2017-04-18T00:59:18.495Z,997.4
2017-04-18T01:00:28.754Z,997.39
2017-04-18T01:01:39.155Z,997.4
2017-04-18T01:02:49.409Z,997.4
2017-04-18T01:03:59.660Z,997.46
2017-04-18T01:05:09.921Z,997.43
2017-04-18T01:06:20.180Z,997.46
2017-04-18T01:07:30.216Z,997.47
2017-04-18T01:08:40.475Z,997.48
2017-04-18T01:09:50.736Z,997.45
2017-04-18T01:11:01.005Z,997.48
2017-04-18T01:12:11.262Z,997.48
2017-04-18T01:13:21.669Z,997.47
2017-04-18T01:14:31.919Z,997.45
2017-04-18T01:15:41.861Z,997.5
2017-04-18T01:16:52.109Z,997.47
2017-04-18T01:18:02.366Z,997.52
2017-04-18T01:19:12.876Z,997.49
2017-04-18T01:20:23.131Z,997.52
2017-04-18T01:21:33.064Z,997.5
2017-04-18T01:22:43.318Z,997.51
2017-04-18T01:23:53.576Z,997.49
2017-04-18T01:25:03.934Z,997.51
2017-04-18T01:26:14.189Z,997.52
2017-04-18T01:27:24.516Z,997.55
2017-04-18T01:28:34.767Z,997.58
2017-04-18T01:29:45.025Z,997.57
2017-04-18T01:30:55.063Z,997.65
2017-04-18T01:32:05.005Z,997.65
2017-04-18T01:33:15.260Z,997.69
2017-04-18T01:34:25.239Z,997.71
2017-04-18T01:35:35.496Z,997.72
2017-04-18T01:36:45.898Z,997.73
2017-04-18T01:37:56.149Z,997.73
2017-04-18T01:39:06.410Z,997.8
2017-04-18T01:40:16.671Z,997.81
2017-04-18T01:41:26.919Z,997.79
2017-04-18T01:42:37.052Z,997.75
2017-04-18T01:43:47.307Z,997.76
2017-04-18T01:44:57.562Z,997.79
2017-04-18T01:46:07.816Z,997.81
2017-04-18T01:47:18.065Z,997.81
2017-04-18T01:48:28.416Z,997.79
2017-04-18T01:49:38.351Z,997.78
2017-04-18T01:50:48.296Z,997.82
2017-04-18T01:51:58.549Z,997.82
2017-04-18T01:53:08.494Z,997.84
2017-04-18T01:54:18.898Z,997.84
2017-04-18T01:55:29.150Z,997.88
2017-04-18T01:56:39.400Z,997.9
2017-04-18T01:57:49.647Z,997.91
2017-04-18T01:58:59.586Z,997.9
2017-04-18T02:00:09.990Z,997.89
2017-04-18T02:01:19.923Z,997.84
2017-04-18T02:02:30.178Z,997.9
2017-04-18T02:03:40.122Z,997.91
2017-04-18T02:04:50.379Z,997.91
2017-04-18T02:06:00.636Z,997.89
2017-04-18T02:07:11.166Z,997.97
2017-04-18T02:08:21.461Z,997.95
2017-04-18T02:09:31.847Z,998
2017-04-18T02:10:42.319Z,997.99
2017-04-18T02:11:52.468Z,998.02
2017-04-18T02:13:02.720Z,998
2017-04-18T02:14:12.967Z,998.02
2017-04-18T02:15:23.221Z,998.01
2017-04-18T02:16:33.509Z,998.03
2017-04-18T02:17:43.815Z,998.08
2017-04-18T02:18:53.747Z,998.08
2017-04-18T02:20:03.687Z,998.08
2017-04-18T02:21:13.942Z,998.1
2017-04-18T02:22:24.194Z,998.08
2017-04-18T02:23:34.133Z,998.17
2017-04-18T02:24:44.388Z,998.16
2017-04-18T02:25:54.637Z,998.08
2017-04-18T02:27:04.889Z,998.11
2017-04-18T02:28:15.142Z,998.17
2017-04-18T02:29:25.417Z,998.14
2017-04-18T02:30:35.669Z,998.19
2017-04-18T02:31:45.915Z,998.19
2017-04-18T02:32:56.173Z,998.23
2017-04-18T02:34:06.443Z,998.14
2017-04-18T02:35:16.073Z,998.21
2017-04-18T02:36:26.354Z,998.24
2017-04-18T02:37:36.608Z,998.26
2017-04-18T02:38:46.865Z,998.26
2017-04-18T02:39:57.154Z,998.26
2017-04-18T02:41:07.408Z,998.27
2017-04-18T02:42:17.658Z,998.31
2017-04-18T02:43:27.909Z,998.35
2017-04-18T02:44:38.160Z,998.34
2017-04-18T02:45:48.094Z,998.35
2017-04-18T02:46:58.032Z,998.36
2017-04-18T02:48:08.283Z,998.39
2017-04-18T02:49:18.535Z,998.38
2017-04-18T02:50:28.816Z,998.4
2017-04-18T02:51:39.068Z,998.42
2017-04-18T02:52:48.994Z,998.44
2017-04-18T02:53:58.931Z,998.44
2017-04-18T02:55:09.201Z,998.47
2017-04-18T02:56:19.136Z,998.46
2017-04-18T02:57:29.377Z,998.5
2017-04-18T02:58:39.629Z,998.47
2017-04-18T02:59:49.880Z,998.49
2017-04-18T03:01:00.131Z,998.47
2017-04-18T03:02:10.378Z,998.52
2017-04-18T03:03:20.323Z,998.54
2017-04-18T03:04:30.266Z,998.58
2017-04-18T03:05:40.526Z,998.57
2017-04-18T03:06:50.781Z,998.58
2017-04-18T03:08:01.036Z,998.59
2017-04-18T03:09:11.293Z,998.62
2017-04-18T03:10:21.553Z,998.61
2017-04-18T03:11:31.490Z,998.65
2017-04-18T03:12:41.426Z,998.66
2017-04-18T03:13:51.365Z,998.66
2017-04-18T03:15:01.613Z,998.69
2017-04-18T03:16:11.862Z,998.7
2017-04-18T03:17:22.120Z,998.72
2017-04-18T03:18:32.370Z,998.76
2017-04-18T03:19:42.623Z,998.73
2017-04-18T03:20:52.573Z,998.74
2017-04-18T03:22:02.514Z,998.79
2017-04-18T03:23:12.761Z,998.72
2017-04-18T03:24:22.702Z,998.77
2017-04-18T03:25:32.955Z,998.83
2017-04-18T03:26:43.217Z,998.83
2017-04-18T03:27:53.492Z,998.8
2017-04-18T03:29:03.750Z,998.82
2017-04-18T03:30:14.067Z,998.84
2017-04-18T03:31:23.688Z,998.84
2017-04-18T03:32:33.943Z,998.86
2017-04-18T03:33:44.429Z,998.89
2017-04-18T03:34:54.730Z,998.99
2017-04-18T03:36:04.729Z,998.91
2017-04-18T03:37:14.976Z,998.93
2017-04-18T03:38:24.913Z,998.98
2017-04-18T03:39:35.165Z,999
2017-04-18T03:40:45.443Z,998.96
2017-04-18T03:41:55.690Z,998.97
2017-04-18T03:43:05.945Z,999
2017-04-18T03:44:15.878Z,999.01
2017-04-18T03:45:26.135Z,999
2017-04-18T03:46:36.381Z,999.01
2017-04-18T03:47:46.627Z,999.02
2017-04-18T03:48:56.883Z,999.05
2017-04-18T03:50:07.135Z,999.05
2017-04-18T03:51:17.073Z,999.06
2017-04-18T03:52:27.324Z,999.05
2017-04-18T03:53:37.573Z,999.07
2017-04-18T03:54:47.824Z,999.08
2017-04-18T03:55:58.087Z,999.05
2017-04-18T03:57:08.338Z,999.08
2017-04-18T03:58:18.591Z,999.14
2017-04-18T03:59:28.841Z,999.18
2017-04-18T04:00:39.095Z,999.17
2017-04-18T04:01:49.352Z,999.16
2017-04-18T04:02:59.600Z,999.16
2017-04-18T04:04:09.855Z,999.16
2017-04-18T04:05:20.106Z,999.2
2017-04-18T04:06:30.528Z,999.21
2017-04-18T04:07:40.466Z,999.3
2017-04-18T04:08:50.914Z,999.29
2017-04-18T04:10:01.179Z,999.31
2017-04-18T04:11:11.468Z,999.34
2017-04-18T04:12:21.723Z,999.33
2017-04-18T04:13:31.971Z,999.36
2017-04-18T04:14:41.902Z,999.38
2017-04-18T04:15:52.152Z,999.38
2017-04-18T04:17:02.399Z,999.4
2017-04-18T04:18:12.661Z,999.41
2017-04-18T04:19:22.909Z,999.47
2017-04-18T04:20:33.157Z,999.43
2017-04-18T04:21:43.420Z,999.46
2017-04-18T04:22:53.664Z,999.53
2017-04-18T04:24:03.915Z,999.5
2017-04-18T04:25:14.168Z,999.5
2017-04-18T04:26:24.421Z,999.5
2017-04-18T04:27:34.700Z,999.54
2017-04-18T04:28:44.965Z,999.53
2017-04-18T04:29:55.220Z,999.49
2017-04-18T04:31:05.158Z,999.58
2017-04-18T04:32:15.415Z,999.55
2017-04-18T04:33:25.664Z,999.58
2017-04-18T04:34:35.923Z,999.52
2017-04-18T04:35:46.178Z,999.53
2017-04-18T04:36:56.431Z,999.55
2017-04-18T04:38:06.059Z,999.48
2017-04-18T04:39:15.993Z,999.51
2017-04-18T04:40:26.240Z,999.53
2017-04-18T04:41:36.173Z,999.54
2017-04-18T04:42:46.426Z,999.56
2017-04-18T04:43:56.688Z,999.56
2017-04-18T04:45:06.939Z,999.56
2017-04-18T04:46:17.201Z,999.57
2017-04-18T04:47:27.137Z,999.58
2017-04-18T04:48:37.424Z,999.54
2017-04-18T04:49:47.694Z,999.6
2017-04-18T04:50:58.077Z,999.57
2017-04-18T04:52:08.327Z,999.61
2017-04-18T04:53:18.449Z,999.6
2017-04-18T04:54:29.002Z,999.61
2017-04-18T04:55:39.256Z,999.63
2017-04-18T04:56:49.513Z,999.64
2017-04-18T04:57:59.846Z,999.65
2017-04-18T04:59:10.096Z,999.64
2017-04-18T05:00:20.355Z,999.69
2017-04-18T05:01:30.603Z,999.66
2017-04-18T05:02:40.851Z,999.68
2017-04-18T05:03:51.104Z,999.75
2017-04-18T05:05:01.361Z,999.73
2017-04-18T05:06:11.298Z,999.77
2017-04-18T05:07:21.546Z,999.77
2017-04-18T05:08:31.791Z,999.74
2017-04-18T05:09:42.049Z,999.74
2017-04-18T05:10:52.306Z,999.79
2017-04-18T05:12:02.563Z,999.8
2017-04-18T05:13:12.809Z,999.81
2017-04-18T05:14:23.062Z,999.83
2017-04-18T05:15:33.004Z,999.83
2017-04-18T05:16:42.630Z,999.82
2017-04-18T05:17:52.890Z,999.83
2017-04-18T05:19:03.152Z,999.88
2017-04-18T05:20:13.399Z,999.86
2017-04-18T05:21:23.337Z,999.85
2017-04-18T05:22:33.588Z,999.9
2017-04-18T05:23:43.843Z,999.88
2017-04-18T05:24:54.095Z,999.88
2017-04-18T05:26:04.346Z,999.93
2017-04-18T05:27:14.282Z,999.95
2017-04-18T05:28:24.532Z,999.89
2017-04-18T05:29:34.779Z,999.91
2017-04-18T05:30:45.028Z,999.93
2017-04-18T05:31:55.275Z,999.93
2017-04-18T05:33:05.517Z,999.94
2017-04-18T05:34:15.489Z,1000.01
2017-04-18T05:35:25.427Z,999.94
2017-04-18T05:36:35.674Z,999.98
2017-04-18T05:37:45.923Z,999.97
2017-04-18T05:38:56.180Z,1000.01
2017-04-18T05:40:06.455Z,999.99
2017-04-18T05:41:16.393Z,1000.07
2017-04-18T05:42:26.022Z,1000.09
2017-04-18T05:43:36.280Z,1000.05
2017-04-18T05:44:46.618Z,1000.03
2017-04-18T05:45:56.878Z,1000.08
2017-04-18T05:47:07.188Z,1000.08
2017-04-18T05:48:17.514Z,1000.12
2017-04-18T05:49:27.773Z,1000.12
2017-04-18T05:50:37.708Z,1000.16
2017-04-18T05:51:48.136Z,1000.14
2017-04-18T05:52:58.466Z,1000.19
2017-04-18T05:54:08.434Z,1000.16
2017-04-18T05:55:18.700Z,1000.13
2017-04-18T05:56:28.633Z,1000.11
2017-04-18T05:57:38.561Z,1000.19
2017-04-18T05:58:48.499Z,1000.15
2017-04-18T05:59:58.757Z,1000.14
2017-04-18T06:01:09.025Z,1000.19
2017-04-18T06:02:19.287Z,1000.2
2017-04-18T06:03:29.233Z,1000.17
2017-04-18T06:04:39.490Z,1000.23
2017-04-18T06:05:49.741Z,1000.23
2017-04-18T06:06:59.991Z,1000.24
2017-04-18T06:08:10.255Z,1000.3
2017-04-18T06:09:20.507Z,1000.26
2017-04-18T06:10:30.775Z,1000.3
2017-04-18T06:11:41.028Z,1000.38
2017-04-18T06:12:51.280Z,1000.39
2017-04-18T06:14:01.222Z,1000.39
2017-04-18T06:15:11.476Z,1000.33
2017-04-18T06:16:21.413Z,1000.37
2017-04-18T06:17:31.661Z,1000.34
2017-04-18T06:18:41.915Z,1000.38
2017-04-18T06:19:52.184Z,1000.42
2017-04-18T06:21:02.125Z,1000.42
2017-04-18T06:22:12.060Z,1000.4
2017-04-18T06:23:22.309Z,1000.48
2017-04-18T06:24:32.560Z,1000.49
2017-04-18T06:25:42.810Z,1000.49
2017-04-18T06:26:53.058Z,1000.51
2017-04-18T06:28:03.001Z,1000.5
2017-04-18T06:29:12.938Z,1000.53
2017-04-18T06:30:23.193Z,1000.54
2017-04-18T06:31:33.127Z,1000.58
2017-04-18T06:32:42.430Z,1000.56
2017-04-18T06:33:52.364Z,1000.58
2017-04-18T06:35:02.618Z,1000.57
2017-04-18T06:36:12.860Z,1000.6
2017-04-18T06:37:23.115Z,1000.64
2017-04-18T06:38:33.051Z,1000.69
2017-04-18T06:39:43.309Z,1000.64
2017-04-18T06:40:53.557Z,1000.69
2017-04-18T06:42:03.497Z,1000.67
2017-04-18T06:43:12.814Z,1000.65
2017-04-18T06:44:23.069Z,1000.63
2017-04-18T06:45:33.321Z,1000.71
2017-04-18T06:46:43.567Z,1000.75
2017-04-18T06:47:54.003Z,1000.73
2017-04-18T06:49:04.470Z,1000.76
2017-04-18T06:50:14.423Z,1000.71
2017-04-18T06:51:24.671Z,1000.74
2017-04-18T06:52:33.559Z,1000.79
2017-04-18T06:53:43.922Z,1000.82
2017-04-18T06:54:54.237Z,1000.84
2017-04-18T06:56:04.273Z,1000.87
2017-04-18T06:57:14.523Z,1000.86
2017-04-18T06:58:24.772Z,1000.87
2017-04-18T06:59:35.022Z,1000.83
2017-04-18T07:00:45.274Z,1000.87
2017-04-18T07:01:55.525Z,1000.85
2017-04-18T07:03:04.207Z,1000.93
2017-04-18T07:04:14.143Z,1000.87
2017-04-18T07:05:24.395Z,1000.88
2017-04-18T07:06:34.649Z,1000.87
2017-04-18T07:07:44.583Z,1000.88
2017-04-18T07:08:54.836Z,1000.9
2017-04-18T07:10:05.088Z,1000.95
2017-04-18T07:11:15.343Z,1000.95
2017-04-18T07:12:24.670Z,1000.95
2017-04-18T07:13:33.678Z,1000.98
2017-04-18T07:14:43.938Z,1000.96
2017-04-18T07:15:53.876Z,1000.98
2017-04-18T07:17:04.129Z,1000.95
2017-04-18T07:18:14.384Z,1000.97
2017-04-18T07:19:24.641Z,1000.95
2017-04-18T07:20:34.575Z,1000.98
2017-04-18T07:21:44.200Z,1000.96
2017-04-18T07:22:52.884Z,1000.93
2017-04-18T07:24:01.915Z,1000.94
2017-04-18T07:25:11.533Z,1000.92
2017-04-18T07:26:21.469Z,1000.95
2017-04-18T07:27:31.404Z,1000.96
2017-04-18T07:28:41.708Z,1000.91
2017-04-18T07:29:51.644Z,1000.97
2017-04-18T07:31:01.909Z,1000.97
2017-04-18T07:32:12.154Z,1000.97
2017-04-18T07:33:21.151Z,1001
2017-04-18T07:34:30.155Z,1000.98
2017-04-18T07:35:38.850Z,1000.96
2017-04-18T07:36:48.796Z,1000.94
2017-04-18T07:37:58.740Z,1000.94
2017-04-18T07:39:08.555Z,1000.89
2017-04-18T07:40:18.819Z,1000.92
2017-04-18T07:41:28.978Z,1000.89
2017-04-18T07:42:38.369Z,1000.93
2017-04-18T07:43:47.709Z,1000.93
2017-04-18T07:44:57.034Z,1000.92
2017-04-18T07:46:05.731Z,1000.97
2017-04-18T07:47:14.757Z,1000.95
2017-04-18T07:48:24.390Z,1000.94
2017-04-18T07:49:34.017Z,1000.95
2017-04-18T07:50:43.956Z,1000.94
2017-04-18T07:51:54.202Z,1000.95
2017-04-18T07:53:02.891Z,1000.95
2017-04-18T07:54:12.207Z,1000.97
2017-04-18T07:55:21.538Z,1000.98
2017-04-18T07:56:30.224Z,1000.94
2017-04-18T07:57:40.172Z,1001
2017-04-18T07:58:49.168Z,1000.98
2017-04-18T07:59:59.425Z,1001.01
2017-04-18T08:01:09.366Z,1001.03
2017-04-18T08:02:18.994Z,1001.04
2017-04-18T08:03:29.249Z,1001.04
2017-04-18T08:04:39.191Z,1001.08
2017-04-18T08:05:49.133Z,1001.09
2017-04-18T08:06:58.753Z,1001.06
2017-04-18T08:08:08.690Z,1001.08
2017-04-18T08:09:18.946Z,1001.07
2017-04-18T08:10:29.200Z,1001.08
2017-04-18T08:11:38.510Z,1001.14
2017-04-18T08:12:48.457Z,1001.11
2017-04-18T08:13:58.405Z,1001.14
2017-04-18T08:15:08.353Z,1001.19
2017-04-18T08:16:18.293Z,1001.17
2017-04-18T08:17:28.254Z,1001.24
2017-04-18T08:18:37.887Z,1001.19
2017-04-18T08:19:47.527Z,1001.18
2017-04-18T08:20:57.464Z,1001.18
2017-04-18T08:22:07.909Z,1001.2
2017-04-18T08:23:17.889Z,1001.2
2017-04-18T08:24:28.333Z,1001.2
2017-04-18T08:25:38.270Z,1001.2
2017-04-18T08:26:47.899Z,1001.22
2017-04-18T08:27:57.850Z,1001.19
2017-04-18T08:29:07.476Z,1001.22
2017-04-18T08:30:17.737Z,1001.19
2017-04-18T08:31:27.362Z,1001.18
2017-04-18T08:32:37.300Z,1001.19
2017-04-18T08:33:46.931Z,1001.24
2017-04-18T08:34:56.564Z,1001.25
2017-04-18T08:36:06.817Z,1001.22
2017-04-18T08:37:16.760Z,1001.27
2017-04-18T08:38:26.384Z,1001.25
2017-04-18T08:39:36.323Z,1001.27
2017-04-18T08:40:45.954Z,1001.26
2017-04-18T08:41:54.952Z,1001.3
2017-04-18T08:43:05.203Z,1001.28
2017-04-18T08:44:15.141Z,1001.27
2017-04-18T08:45:24.767Z,1001.27
2017-04-18T08:46:34.703Z,1001.29
2017-04-18T08:47:44.642Z,1001.3
2017-04-18T08:48:54.582Z,1001.32
2017-04-18T08:50:04.524Z,1001.33
2017-04-18T08:51:14.154Z,1001.35
2017-04-18T08:52:23.503Z,1001.33
2017-04-18T08:53:32.229Z,1001.34
2017-04-18T08:54:41.011Z,1001.35
2017-04-18T08:55:50.394Z,1001.38
2017-04-18T08:56:59.504Z,1001.35
2017-04-18T08:58:08.338Z,1001.35
2017-04-18T08:59:17.340Z,1001.37
2017-04-18T09:00:27.285Z,1001.39
2017-04-18T09:01:37.367Z,1001.36
2017-04-18T09:02:47.309Z,1001.39
2017-04-18T09:03:56.939Z,1001.4
2017-04-18T09:05:06.878Z,1001.4
2017-04-18T09:06:17.129Z,1001.36
2017-04-18T09:07:26.766Z,1001.41
2017-04-18T09:08:36.396Z,1001.37
2017-04-18T09:09:46.653Z,1001.38
2017-04-18T09:10:56.910Z,1001.42
2017-04-18T09:12:06.857Z,1001.38
2017-04-18T09:13:16.799Z,1001.37
2017-04-18T09:14:26.747Z,1001.36
2017-04-18T09:15:36.686Z,1001.38
2017-04-18T09:16:46.943Z,1001.41
2017-04-18T09:17:56.264Z,1001.42
2017-04-18T09:19:06.524Z,1001.45
2017-04-18T09:20:16.779Z,1001.45
2017-04-18T09:21:26.722Z,1001.41
2017-04-18T09:22:36.989Z,1001.41
2017-04-18T09:23:47.243Z,1001.42
2017-04-18T09:24:57.504Z,1001.43
2017-04-18T09:26:07.448Z,1001.45
2017-04-18T09:27:17.391Z,1001.46
2017-04-18T09:28:27.334Z,1001.46
2017-04-18T09:29:37.125Z,1001.42
2017-04-18T09:30:47.158Z,1001.45
2017-04-18T09:31:57.497Z,1001.39
2017-04-18T09:33:07.435Z,1001.48
2017-04-18T09:34:17.376Z,1001.45
2017-04-18T09:35:27.015Z,1001.46
2017-04-18T09:36:37.271Z,1001.47
2017-04-18T09:37:47.219Z,1001.37
2017-04-18T09:38:57.166Z,1001.41
2017-04-18T09:40:07.112Z,1001.38
2017-04-18T09:41:16.758Z,1001.43
2017-04-18T09:42:26.701Z,1001.42
2017-04-18T09:43:36.647Z,1001.4
2017-04-18T09:44:46.624Z,1001.43
2017-04-18T09:45:56.880Z,1001.41
2017-04-18T09:47:07.137Z,1001.41
2017-04-18T09:48:16.769Z,1001.42
2017-04-18T09:49:27.021Z,1001.4
2017-04-18T09:50:37.272Z,1001.42
2017-04-18T09:51:47.223Z,1001.39
2017-04-18T09:52:56.853Z,1001.37
2017-04-18T09:54:07.114Z,1001.34
2017-04-18T09:55:16.431Z,1001.37
2017-04-18T09:56:25.752Z,1001.37
2017-04-18T09:57:36.017Z,1001.34
2017-04-18T09:58:45.649Z,1001.33
2017-04-18T09:59:55.602Z,1001.36
2017-04-18T10:01:05.897Z,1001.35
2017-04-18T10:02:16.266Z,1001.35
2017-04-18T10:03:26.607Z,1001.36
2017-04-18T10:04:36.872Z,1001.33
2017-04-18T10:05:47.131Z,1001.3
2017-04-18T10:06:57.395Z,1001.31
2017-04-18T10:08:07.654Z,1001.33
2017-04-18T10:09:17.286Z,1001.34
2017-04-18T10:10:27.540Z,1001.3
2017-04-18T10:11:37.166Z,1001.28
2017-04-18T10:12:47.114Z,1001.26
2017-04-18T10:13:56.464Z,1001.28
2017-04-18T10:15:06.719Z,1001.29
2017-04-18T10:16:16.662Z,1001.28
2017-04-18T10:17:26.610Z,1001.3
2017-04-18T10:18:36.555Z,1001.28
2017-04-18T10:19:46.811Z,1001.28
2017-04-18T10:20:56.752Z,1001.29
2017-04-18T10:22:06.697Z,1001.27
2017-04-18T10:23:16.638Z,1001.26
2017-04-18T10:24:26.271Z,1001.27
2017-04-18T10:25:36.219Z,1001.23
2017-04-18T10:26:46.508Z,1001.21
2017-04-18T10:27:56.771Z,1001.21
2017-04-18T10:29:06.720Z,1001.22
2017-04-18T10:30:16.357Z,1001.24
2017-04-18T10:31:26.612Z,1001.25
2017-04-18T10:32:36.563Z,1001.23
2017-04-18T10:33:46.508Z,1001.25
2017-04-18T10:34:56.144Z,1001.23
2017-04-18T10:36:06.757Z,1001.24
2017-04-18T10:37:16.701Z,1001.21
2017-04-18T10:38:27.051Z,1001.22
2017-04-18T10:39:37.443Z,1001.2
2017-04-18T10:40:47.698Z,1001.19
2017-04-18T10:41:57.957Z,1001.2
2017-04-18T10:43:07.900Z,1001.19
2017-04-18T10:44:17.851Z,1001.21
2017-04-18T10:45:27.483Z,1001.19
2017-04-18T10:46:37.433Z,1001.19
2017-04-18T10:47:47.694Z,1001.22
2017-04-18T10:48:57.648Z,1001.21
2017-04-18T10:50:07.589Z,1001.22
2017-04-18T10:51:17.845Z,1001.22
2017-04-18T10:52:27.791Z,1001.17
2017-04-18T10:53:37.735Z,1001.2
2017-04-18T10:54:47.685Z,1001.2
2017-04-18T10:55:57.942Z,1001.17
2017-04-18T10:57:07.892Z,1001.16
2017-04-18T10:58:17.850Z,1001.18
2017-04-18T10:59:28.108Z,1001.15
2017-04-18T11:00:38.364Z,1001.18
2017-04-18T11:01:48.628Z,1001.14
2017-04-18T11:02:58.894Z,1001.16
2017-04-18T11:04:09.159Z,1001.18
2017-04-18T11:05:18.794Z,1001.2
2017-04-18T11:06:29.050Z,1001.21
2017-04-18T11:07:38.683Z,1001.2
2017-04-18T11:08:48.944Z,1001.19
2017-04-18T11:09:59.206Z,1001.18
2017-04-18T11:11:09.465Z,1001.15
2017-04-18T11:12:19.733Z,1001.14
2017-04-18T11:13:29.151Z,1001.16
2017-04-18T11:14:39.151Z,1001.17
2017-04-18T11:15:49.101Z,1001.15
2017-04-18T11:16:59.361Z,1001.18
2017-04-18T11:18:09.628Z,1001.19
2017-04-18T11:19:19.581Z,1001.26
2017-04-18T11:20:29.844Z,1001.35
2017-04-18T11:21:40.096Z,1001.42
2017-04-18T11:22:50.367Z,1001.52
2017-04-18T11:24:00.005Z,1001.53
2017-04-18T11:25:10.274Z,1001.57
2017-04-18T11:26:20.228Z,1001.55
2017-04-18T11:27:30.172Z,1001.55
2017-04-18T11:28:40.135Z,1001.54
2017-04-18T11:29:50.088Z,1001.51
2017-04-18T11:30:59.413Z,1001.55
2017-04-18T11:32:09.673Z,1001.58
2017-04-18T11:33:19.635Z,1001.58
2017-04-18T11:34:29.583Z,1001.64
2017-04-18T11:35:39.861Z,1001.67
2017-04-18T11:36:50.128Z,1001.69
2017-04-18T11:38:00.086Z,1001.71
2017-04-18T11:39:10.048Z,1001.7
2017-04-18T11:40:20.005Z,1001.73
2017-04-18T11:41:29.338Z,1001.79
2017-04-18T11:42:39.606Z,1001.84
2017-04-18T11:43:49.565Z,1001.94
2017-04-18T11:44:59.836Z,1001.97
2017-04-18T11:46:09.479Z,1001.88
2017-04-18T11:47:19.762Z,1001.87
2017-04-18T11:48:29.406Z,1001.84
2017-04-18T11:49:39.688Z,1001.84
2017-04-18T11:50:50.107Z,1001.84
2017-04-18T11:52:00.517Z,1001.9
2017-04-18T11:53:10.483Z,1001.87
2017-04-18T11:54:20.443Z,1001.96
2017-04-18T11:55:30.098Z,1001.96
2017-04-18T11:56:40.057Z,1001.95
2017-04-18T11:57:49.705Z,1001.95
2017-04-18T11:58:59.986Z,1002.04
2017-04-18T12:00:10.259Z,1002.05
2017-04-18T12:01:20.220Z,1002.1
2017-04-18T12:02:30.504Z,1002.11
2017-04-18T12:03:40.154Z,1002.16
2017-04-18T12:04:50.118Z,1002.12
2017-04-18T12:06:00.393Z,1002.21
2017-04-18T12:07:10.361Z,1002.18
2017-04-18T12:08:20.644Z,1002.37
2017-04-18T12:09:30.925Z,1002.52
2017-04-18T12:10:41.204Z,1002.54
2017-04-18T12:11:51.162Z,1002.64
2017-04-18T12:13:01.119Z,1002.66
2017-04-18T12:14:10.778Z,1002.71
2017-04-18T12:15:21.070Z,1002.74
2017-04-18T12:16:31.348Z,1002.8
2017-04-18T12:17:41.314Z,1002.92
2017-04-18T12:18:51.588Z,1002.93
2017-04-18T12:20:01.569Z,1003.02
2017-04-18T12:21:11.535Z,1003.09
2017-04-18T12:22:21.867Z,1003.07
2017-04-18T12:23:31.833Z,1002.97
2017-04-18T12:24:41.989Z,1002.97
2017-04-18T12:25:52.267Z,1002.94
2017-04-18T12:27:02.547Z,1002.91
2017-04-18T12:28:12.424Z,1003.05
2017-04-18T12:29:22.073Z,1003.06
2017-04-18T12:30:32.361Z,1003.2
2017-04-18T12:31:42.333Z,1003.07
2017-04-18T12:32:52.301Z,1003.16
2017-04-18T12:34:01.952Z,1003.13
2017-04-18T12:35:11.919Z,1003.16
2017-04-18T12:36:21.259Z,1003.03
2017-04-18T12:37:31.551Z,1002.97
2017-04-18T12:38:41.839Z,1002.94
2017-04-18T12:39:51.807Z,1003.01
2017-04-18T12:41:02.084Z,1002.95
2017-04-18T12:42:12.054Z,1002.96
2017-04-18T12:43:20.772Z,1002.91
2017-04-18T12:44:30.735Z,1002.85
2017-04-18T12:45:41.014Z,1002.83
2017-04-18T12:46:51.301Z,1002.8
2017-04-18T12:48:01.634Z,1002.78
2017-04-18T12:49:11.283Z,1002.72
2017-04-18T12:50:20.942Z,1002.64
2017-04-18T12:51:30.286Z,1002.69
2017-04-18T12:52:40.563Z,1002.69
2017-04-18T12:53:52.317Z,1002.6
2017-04-18T12:55:02.602Z,1002.68
2017-04-18T12:56:12.622Z,1002.71
2017-04-18T12:57:22.686Z,1002.81
2017-04-18T12:58:32.352Z,1002.78
2017-04-18T12:59:42.318Z,1002.78
2017-04-18T13:00:51.969Z,1002.91
2017-04-18T13:02:01.934Z,1002.96
2017-04-18T13:03:10.646Z,1002.96
2017-04-18T13:04:20.930Z,1002.95
2017-04-18T13:05:30.902Z,1003.06
2017-04-18T13:06:41.180Z,1002.87
2017-04-18T13:07:51.143Z,1002.98
2017-04-18T13:09:01.125Z,1003.03
2017-04-18T13:10:11.403Z,1003.06
2017-04-18T13:11:21.058Z,1002.96
2017-04-18T13:12:31.334Z,1003
2017-04-18T13:13:40.682Z,1002.99
2017-04-18T13:14:50.359Z,1002.88
2017-04-18T13:16:00.328Z,1003.05
2017-04-18T13:17:09.986Z,1002.98
2017-04-18T13:18:20.284Z,1003.08
2017-04-18T13:19:29.623Z,1003.06
2017-04-18T13:20:38.963Z,1003.04
2017-04-18T13:21:48.311Z,1003.08
2017-04-18T13:22:58.281Z,1001.09
2017-04-18T13:24:07.312Z,1003.17
2017-04-18T13:25:17.366Z,1003.13
2017-04-18T13:26:27.496Z,1003.01
2017-04-18T13:27:37.438Z,1003.03
2017-04-18T13:28:46.794Z,1002.86
2017-04-18T13:29:57.076Z,1002.87
2017-04-18T13:31:06.727Z,1002.82
2017-04-18T13:32:17.011Z,1002.83
2017-04-18T13:33:26.664Z,1002.87
2017-04-18T13:34:36.327Z,1003.05
2017-04-18T13:35:46.611Z,1003.09
2017-04-18T13:36:56.265Z,1003
2017-04-18T13:38:06.545Z,1002.65
2017-04-18T13:39:16.826Z,1002.59
2017-04-18T13:40:27.103Z,1002.57
2017-04-18T13:41:36.757Z,1002.3
2017-04-18T13:42:47.039Z,1002.07
2017-04-18T13:43:56.064Z,1002.02
2017-04-18T13:45:05.099Z,1001.66
2017-04-18T13:46:13.813Z,1002.07
2017-04-18T13:47:24.097Z,1002.13
2017-04-18T13:48:34.375Z,1002.31
2017-04-18T13:49:44.659Z,1002.6
2017-04-18T13:50:54.316Z,1002.57
2017-04-18T13:52:04.290Z,1002.58
2017-04-18T13:53:13.630Z,1002.63
2017-04-18T13:54:22.657Z,1002.74
2017-04-18T13:55:31.363Z,1002.84
2017-04-18T13:56:41.020Z,1003.17
2017-04-18T13:57:50.676Z,1003.34
2017-04-18T13:59:00.644Z,1003.23
2017-04-18T14:00:10.332Z,1003.12
2017-04-18T14:01:20.615Z,1003.03
2017-04-18T14:02:30.919Z,1002.89
2017-04-18T14:03:39.634Z,1002.39
2017-04-18T14:04:48.979Z,1001.85
2017-04-18T14:05:58.328Z,1002.43
2017-04-18T14:07:07.677Z,1001.86
2017-04-18T14:08:17.030Z,1001.13
2017-04-18T14:09:27.001Z,1001.28
2017-04-18T14:10:37.280Z,1002.21
2017-04-18T14:11:47.247Z,1003.28
2017-04-18T14:12:57.527Z,1003.17
2017-04-18T14:14:07.810Z,1003.27
2017-04-18T14:15:18.085Z,1003.23
2017-04-18T14:16:28.373Z,1003.31
2017-04-18T14:17:38.654Z,1003.41
2017-04-18T14:18:48.940Z,1003.29
2017-04-18T14:19:58.918Z,1003.23
2017-04-18T14:21:08.885Z,1003.31